createdAt,value
2018-07-06T00:02:31.990Z,82.00
2018-07-06T00:05:11.335Z,81.80
2018-07-06T00:07:51.150Z,81.80
2018-07-06T00:10:30.743Z,82.40
2018-07-06T00:13:10.237Z,81.80
2018-07-06T00:15:49.742Z,81.90
2018-07-06T00:18:29.363Z,82.00
2018-07-06T00:21:08.850Z,82.10
2018-07-06T00:23:48.417Z,82.10
2018-07-06T00:26:28.066Z,82.30
2018-07-06T00:29:07.757Z,82.20
2018-07-06T00:31:47.383Z,82.20
2018-07-06T00:34:27.041Z,82.10
2018-07-06T00:37:06.660Z,82.00
2018-07-06T00:39:46.121Z,82.00
2018-07-06T00:42:25.570Z,81.90
2018-07-06T00:45:05.294Z,82.40
2018-07-06T00:47:44.844Z,81.70
2018-07-06T00:50:24.282Z,81.60
2018-07-06T00:58:10.821Z,81.50
2018-07-06T01:00:50.326Z,81.20
2018-07-06T01:03:29.989Z,81.00
2018-07-06T01:06:09.684Z,81.10
2018-07-06T01:08:49.226Z,81.00
2018-07-06T01:11:28.982Z,80.90
2018-07-06T01:14:08.577Z,80.90
2018-07-06T01:16:48.054Z,80.90
2018-07-06T01:19:27.635Z,80.90
2018-07-06T01:22:07.228Z,80.90
2018-07-06T01:24:46.738Z,80.80
2018-07-06T01:27:26.237Z,80.80
2018-07-06T01:30:05.978Z,80.70
2018-07-06T01:32:45.596Z,80.90
2018-07-06T01:35:25.106Z,80.80
2018-07-06T01:38:04.882Z,80.90
2018-07-06T01:40:44.627Z,80.90
2018-07-06T01:43:24.217Z,80.90
2018-07-06T01:46:03.934Z,81.10
2018-07-06T01:48:43.493Z,81.00
2018-07-06T01:51:23.167Z,81.10
2018-07-06T01:54:02.814Z,81.20
2018-07-06T01:56:42.318Z,81.30
2018-07-06T01:59:21.823Z,81.20
2018-07-06T02:02:01.297Z,81.40
2018-07-06T02:04:40.696Z,81.50
2018-07-06T02:07:20.223Z,81.60
2018-07-06T02:09:59.913Z,81.50
2018-07-06T02:12:39.630Z,81.60
2018-07-06T02:15:19.250Z,81.80
2018-07-06T02:17:58.866Z,81.70
2018-07-06T02:20:38.561Z,81.70
2018-07-06T02:23:18.041Z,82.20
2018-07-06T02:25:57.794Z,81.80
2018-07-06T02:28:37.439Z,81.80
2018-07-06T02:31:16.935Z,81.90
2018-07-06T02:33:56.585Z,81.50
2018-07-06T02:36:36.285Z,82.20
2018-07-06T02:39:16.025Z,82.30
2018-07-06T02:41:55.506Z,82.40
2018-07-06T02:44:35.453Z,82.60
2018-07-06T02:47:15.114Z,82.70
2018-07-06T02:49:54.838Z,82.70
2018-07-06T02:52:34.432Z,82.90
2018-07-06T02:55:13.995Z,83.00
2018-07-06T02:57:53.663Z,83.20
2018-07-06T03:00:33.196Z,83.30
2018-07-06T03:03:12.943Z,83.40
2018-07-06T03:05:52.696Z,83.50
2018-07-06T03:08:32.321Z,83.60
2018-07-06T03:11:11.830Z,83.60
2018-07-06T03:13:51.349Z,83.70
2018-07-06T03:16:30.961Z,83.70
2018-07-06T03:19:10.623Z,83.80
2018-07-06T03:21:50.278Z,84.00
2018-07-06T03:24:29.737Z,84.10
2018-07-06T03:27:09.390Z,84.30
2018-07-06T03:29:48.868Z,84.40
2018-07-06T03:32:28.385Z,84.60
2018-07-06T03:35:08.090Z,84.90
2018-07-06T03:37:47.550Z,85.10
2018-07-06T03:40:27.149Z,85.70
2018-07-06T03:43:06.805Z,85.30
2018-07-06T03:45:46.529Z,85.60
2018-07-06T03:48:28.221Z,85.80
2018-07-06T03:51:08.601Z,85.80
2018-07-06T03:53:48.661Z,85.80
2018-07-06T03:56:28.148Z,87.00
2018-07-06T03:59:08.122Z,86.50
2018-07-06T04:01:47.787Z,86.70
2018-07-06T04:04:27.361Z,87.10
2018-07-06T04:07:07.025Z,87.40
2018-07-06T04:09:46.504Z,87.70
2018-07-06T04:12:26.089Z,87.90
2018-07-06T04:15:05.618Z,88.20
2018-07-06T04:17:45.295Z,88.50
2018-07-06T04:20:25.073Z,88.80
2018-07-06T04:23:04.614Z,89.30
2018-07-06T04:25:44.134Z,89.50
2018-07-06T04:28:23.608Z,89.80
2018-07-06T04:31:03.225Z,90.00
2018-07-06T04:33:42.731Z,90.10
2018-07-06T04:36:22.445Z,90.10
2018-07-06T04:39:01.924Z,90.20
2018-07-06T04:41:41.560Z,90.30
2018-07-06T04:44:21.085Z,90.40
2018-07-06T04:47:00.669Z,90.40
2018-07-06T04:49:40.413Z,90.80
2018-07-06T04:52:20.167Z,90.60
2018-07-06T04:55:00.585Z,90.60
2018-07-06T04:57:40.238Z,90.70
2018-07-06T05:00:19.755Z,90.80
2018-07-06T05:02:59.246Z,90.80
2018-07-06T05:05:38.972Z,90.90
2018-07-06T05:08:18.709Z,90.90
2018-07-06T05:10:58.125Z,91.00
2018-07-06T05:13:37.834Z,91.10
2018-07-06T05:16:17.505Z,91.10
2018-07-06T05:18:57.041Z,91.10
2018-07-06T05:21:36.618Z,91.20
2018-07-06T05:24:16.305Z,91.20
2018-07-06T05:26:56.051Z,91.20
2018-07-06T05:29:35.713Z,91.20
2018-07-06T05:32:15.484Z,91.40
2018-07-06T05:34:55.164Z,91.40
2018-07-06T05:37:34.870Z,91.50
2018-07-06T05:40:14.494Z,91.50
2018-07-06T05:42:54.145Z,91.60
2018-07-06T05:45:33.745Z,91.60
2018-07-06T05:48:13.397Z,91.60
2018-07-06T05:50:53.566Z,91.60
2018-07-06T05:53:33.116Z,91.60
2018-07-06T05:56:12.753Z,91.70
2018-07-06T05:58:52.408Z,91.70
2018-07-06T06:01:32.129Z,91.70
2018-07-06T06:04:11.717Z,91.70
2018-07-06T06:06:51.377Z,91.80
2018-07-06T06:09:19.767Z,91.80
2018-07-06T06:11:48.661Z,91.70
2018-07-06T06:14:19.822Z,91.70
2018-07-06T06:16:48.282Z,91.70
2018-07-06T06:19:16.725Z,91.70
2018-07-06T06:21:45.181Z,91.80
2018-07-06T06:24:13.496Z,91.80
2018-07-06T06:26:41.858Z,91.80
2018-07-06T06:29:10.234Z,91.90
2018-07-06T06:31:38.622Z,92.00
2018-07-06T06:34:08.573Z,92.10
2018-07-06T06:36:37.437Z,92.20
2018-07-06T06:39:05.865Z,92.20
2018-07-06T06:41:34.416Z,92.20
2018-07-06T06:44:02.879Z,92.10
2018-07-06T06:46:31.539Z,92.10
2018-07-06T06:49:00.118Z,92.10
2018-07-06T06:51:28.599Z,92.20
2018-07-06T06:53:57.030Z,92.20
2018-07-06T06:56:25.501Z,92.10
2018-07-06T06:58:54.095Z,91.90
2018-07-06T07:01:22.510Z,91.90
2018-07-06T07:03:50.929Z,91.80
2018-07-06T07:06:19.400Z,91.70
2018-07-06T07:08:47.843Z,91.70
2018-07-06T07:11:16.193Z,91.50
2018-07-06T07:13:44.627Z,91.40
2018-07-06T07:18:41.174Z,91.40
2018-07-06T07:21:09.523Z,91.40
2018-07-06T07:23:38.026Z,91.30
2018-07-06T07:26:06.401Z,91.20
2018-07-06T07:28:34.892Z,91.10
2018-07-06T07:31:03.372Z,91.10
2018-07-06T07:33:31.854Z,91.00
2018-07-06T07:36:00.553Z,90.90
2018-07-06T07:38:28.958Z,90.90
2018-07-06T07:40:57.341Z,90.80
2018-07-06T07:43:25.718Z,91.00
2018-07-06T07:45:54.142Z,90.60
2018-07-06T07:48:22.538Z,90.70
2018-07-06T07:51:02.212Z,90.70
2018-07-06T07:53:41.963Z,90.70
2018-07-06T07:56:10.430Z,90.60
2018-07-06T07:58:38.825Z,90.60
2018-07-06T08:01:07.360Z,90.40
2018-07-06T08:03:35.878Z,90.20
2018-07-06T08:06:04.560Z,90.30
2018-07-06T08:08:33.010Z,90.10
2018-07-06T08:11:01.454Z,89.90
2018-07-06T08:13:29.986Z,89.70
2018-07-06T08:15:58.397Z,89.50
2018-07-06T08:18:26.854Z,88.80
2018-07-06T08:20:55.196Z,88.80
2018-07-06T08:23:23.531Z,88.30
2018-07-06T08:25:52.222Z,87.10
2018-07-06T08:28:20.577Z,86.30
2018-07-06T08:33:17.049Z,84.40
2018-07-06T08:35:56.558Z,83.90
2018-07-06T08:38:24.952Z,83.90
2018-07-06T08:40:53.313Z,83.50
2018-07-06T08:43:21.690Z,82.50
2018-07-06T08:45:50.157Z,79.80
2018-07-06T08:48:18.658Z,80.30
2018-07-06T08:50:47.029Z,79.20
2018-07-06T08:53:15.460Z,78.60
2018-07-06T08:55:43.891Z,76.80
2018-07-06T08:58:12.529Z,75.50
2018-07-06T09:00:41.002Z,73.20
2018-07-06T09:03:09.414Z,70.70
2018-07-06T09:05:37.773Z,69.10
2018-07-06T09:08:06.225Z,67.40
2018-07-06T09:10:34.575Z,65.70
2018-07-06T09:13:03.042Z,61.90
2018-07-06T09:15:31.466Z,61.50
2018-07-06T09:17:59.875Z,59.40
2018-07-06T09:20:28.210Z,58.70
2018-07-06T09:22:56.574Z,57.70
2018-07-06T09:25:24.963Z,56.20
2018-07-06T09:27:53.355Z,55.70
2018-07-06T09:30:21.758Z,55.40
2018-07-06T09:32:50.218Z,53.10
2018-07-06T09:35:18.629Z,53.20
2018-07-06T09:37:47.022Z,53.10
2018-07-06T09:40:15.378Z,52.30
2018-07-06T09:42:43.858Z,51.30
2018-07-06T09:45:12.318Z,50.80
2018-07-06T09:47:40.800Z,50.80
2018-07-06T09:50:09.231Z,49.60
2018-07-06T09:52:37.884Z,49.50
2018-07-06T09:55:06.313Z,48.70
2018-07-06T09:57:34.737Z,48.40
2018-07-06T10:00:03.217Z,48.40
2018-07-06T10:02:31.589Z,48.50
2018-07-06T10:04:59.970Z,49.00
2018-07-06T10:07:29.373Z,49.20
2018-07-06T10:09:57.863Z,49.20
2018-07-06T10:12:26.324Z,47.90
2018-07-06T10:14:54.619Z,48.10
2018-07-06T10:17:22.974Z,47.90
2018-07-06T10:19:51.460Z,47.50
2018-07-06T10:22:19.927Z,47.10
2018-07-06T10:24:48.306Z,47.20
2018-07-06T10:27:16.852Z,47.30
2018-07-06T10:30:02.419Z,47.00
2018-07-06T10:32:31.125Z,47.30
2018-07-06T10:35:00.101Z,47.50
2018-07-06T10:37:28.961Z,47.00
2018-07-06T10:39:57.423Z,47.40
2018-07-06T10:42:25.760Z,47.70
2018-07-06T10:44:54.126Z,47.20
2018-07-06T10:47:22.541Z,46.90
2018-07-06T10:52:18.993Z,46.50
2018-07-06T10:54:47.819Z,46.40
2018-07-06T10:57:16.301Z,45.60
2018-07-06T10:59:44.653Z,45.40
2018-07-06T11:02:13.033Z,45.50
2018-07-06T11:04:41.493Z,45.10
2018-07-06T11:07:09.968Z,44.30
2018-07-06T11:09:38.446Z,43.60
2018-07-06T11:12:06.792Z,43.50
2018-07-06T11:14:35.221Z,43.30
2018-07-06T11:17:03.733Z,43.10
2018-07-06T11:19:32.194Z,43.00
2018-07-06T11:22:00.571Z,42.70
2018-07-06T11:24:28.957Z,42.30
2018-07-06T11:26:57.385Z,41.60
2018-07-06T11:29:25.731Z,40.60
2018-07-06T11:31:54.217Z,39.70
2018-07-06T11:34:22.574Z,39.00
2018-07-06T11:36:51.005Z,38.50
2018-07-06T11:39:19.363Z,38.20
2018-07-06T11:41:47.693Z,37.60
2018-07-06T11:44:16.078Z,36.80
2018-07-06T11:46:44.461Z,36.40
2018-07-06T11:49:12.968Z,36.10
2018-07-06T11:51:41.369Z,35.40
2018-07-06T11:54:09.784Z,35.60
2018-07-06T11:56:38.154Z,35.80
2018-07-06T11:59:06.570Z,36.00
2018-07-06T12:01:35.550Z,35.00
2018-07-06T12:04:04.138Z,34.80
2018-07-06T12:06:32.363Z,34.70
2018-07-06T12:09:00.793Z,34.40
2018-07-06T12:11:29.193Z,33.40
2018-07-06T12:13:57.573Z,31.80
2018-07-06T12:16:25.989Z,30.80
2018-07-06T12:18:54.498Z,30.20
2018-07-06T12:21:22.973Z,30.90
2018-07-06T12:23:51.211Z,31.20
2018-07-06T12:26:19.786Z,30.30
2018-07-06T12:28:48.170Z,30.10
2018-07-06T12:31:16.637Z,29.70
2018-07-06T12:33:45.099Z,29.20
2018-07-06T12:36:13.621Z,29.10
2018-07-06T12:38:41.989Z,28.90
2018-07-06T12:41:10.394Z,28.60
2018-07-06T12:43:38.874Z,27.80
2018-07-06T12:46:07.301Z,27.80
2018-07-06T12:48:35.840Z,27.90
2018-07-06T12:51:04.270Z,27.70
2018-07-06T12:53:32.600Z,27.30
2018-07-06T12:56:01.003Z,27.00
2018-07-06T12:58:29.397Z,26.90
2018-07-06T13:00:57.701Z,26.70
2018-07-06T13:03:26.050Z,27.10
2018-07-06T13:05:54.359Z,27.50
2018-07-06T13:08:22.853Z,27.90
2018-07-06T13:10:51.197Z,28.40
2018-07-06T13:13:19.584Z,28.50
2018-07-06T13:18:16.024Z,27.30
2018-07-06T13:20:44.385Z,27.50
2018-07-06T13:23:12.739Z,27.60
2018-07-06T13:25:41.086Z,27.90
2018-07-06T13:28:09.417Z,28.20
2018-07-06T13:30:37.769Z,27.80
2018-07-06T13:33:06.173Z,27.30
2018-07-06T13:35:34.529Z,27.60
2018-07-06T13:38:02.937Z,27.80
2018-07-06T13:40:31.285Z,27.80
2018-07-06T13:42:59.633Z,28.00
2018-07-06T13:45:28.063Z,27.80
2018-07-06T13:47:56.424Z,27.60
2018-07-06T13:50:24.799Z,27.60
2018-07-06T13:52:53.129Z,27.10
2018-07-06T13:55:21.481Z,27.00
2018-07-06T13:57:49.830Z,26.80
2018-07-06T14:00:18.166Z,26.60
2018-07-06T14:02:46.484Z,26.10
2018-07-06T14:05:14.857Z,26.20
2018-07-06T14:07:43.162Z,26.00
2018-07-06T14:10:11.578Z,25.60
2018-07-06T14:12:39.949Z,25.80
2018-07-06T14:15:08.309Z,25.70
2018-07-06T14:17:36.662Z,25.20
2018-07-06T14:20:05.831Z,25.10
2018-07-06T14:22:34.478Z,24.90
2018-07-06T14:25:02.746Z,25.30
2018-07-06T14:27:31.122Z,25.70
2018-07-06T14:29:59.446Z,25.70
2018-07-06T14:32:27.781Z,26.00
2018-07-06T14:34:56.199Z,26.20
2018-07-06T14:39:52.651Z,26.60
2018-07-06T14:42:21.050Z,26.80
2018-07-06T14:44:49.393Z,26.60
2018-07-06T14:47:17.818Z,26.50
2018-07-06T14:49:46.143Z,27.40
2018-07-06T14:52:14.535Z,28.20
2018-07-06T14:57:10.969Z,29.40
2018-07-06T14:59:39.409Z,29.60
2018-07-06T15:02:07.814Z,29.30
2018-07-06T15:04:36.245Z,29.80
2018-07-06T15:07:04.774Z,30.10
2018-07-06T15:09:33.113Z,31.60
2018-07-06T15:12:01.496Z,31.60
2018-07-06T15:14:29.885Z,32.20
2018-07-06T15:16:58.207Z,32.90
2018-07-06T15:19:26.685Z,33.70
2018-07-06T15:21:55.061Z,34.30
2018-07-06T15:26:51.558Z,36.70
2018-07-06T15:29:19.928Z,37.20
2018-07-06T15:31:48.390Z,37.60
2018-07-06T15:34:16.757Z,38.30
2018-07-06T15:36:45.105Z,38.80
2018-07-06T15:39:20.137Z,39.00
2018-07-06T15:41:48.486Z,39.50
2018-07-06T15:44:16.917Z,39.90
2018-07-06T15:46:45.377Z,39.90
2018-07-06T15:49:13.698Z,40.20
2018-07-06T15:51:42.032Z,39.60
2018-07-06T15:54:10.638Z,39.30
2018-07-06T15:56:39.132Z,39.60
2018-07-06T16:01:35.604Z,40.40
2018-07-06T16:04:04.064Z,40.50
2018-07-06T16:06:32.465Z,41.10
2018-07-06T16:09:00.830Z,41.40
2018-07-06T16:11:29.158Z,41.90
2018-07-06T16:13:57.596Z,42.10
2018-07-06T16:16:26.282Z,42.00
2018-07-06T16:18:54.605Z,42.30
2018-07-06T16:21:22.957Z,42.70
2018-07-06T16:23:51.326Z,43.20
2018-07-06T16:26:19.694Z,43.50
2018-07-06T16:28:48.058Z,43.60
2018-07-06T16:31:16.450Z,43.80
2018-07-06T16:33:44.906Z,43.90
2018-07-06T16:36:13.337Z,44.30
2018-07-06T16:38:41.731Z,44.20
2018-07-06T16:41:10.125Z,44.50
2018-07-06T16:43:38.537Z,44.80
2018-07-06T16:46:07.157Z,45.00
2018-07-06T16:48:35.535Z,45.20
2018-07-06T16:51:03.889Z,45.80
2018-07-06T16:53:32.269Z,46.30
2018-07-06T16:56:00.600Z,46.80
2018-07-06T16:58:28.997Z,47.40
2018-07-06T17:00:57.423Z,47.70
2018-07-06T17:03:25.923Z,48.00
2018-07-06T17:05:54.290Z,48.90
2018-07-06T17:08:22.746Z,48.80
2018-07-06T17:10:51.490Z,49.20
2018-07-06T17:13:19.862Z,49.30
2018-07-06T17:15:48.249Z,49.70
2018-07-06T17:20:44.769Z,50.10
2018-07-06T17:23:13.145Z,50.00
2018-07-06T17:25:41.527Z,50.20
2018-07-06T17:28:09.881Z,50.40
2018-07-06T17:30:38.243Z,50.80
2018-07-06T17:33:06.804Z,51.60
2018-07-06T17:38:03.366Z,51.10
2018-07-06T17:40:31.697Z,51.30
2018-07-06T17:43:00.069Z,51.80
2018-07-06T17:45:28.521Z,51.90
2018-07-06T17:47:57.079Z,52.10
2018-07-06T17:50:25.447Z,52.40
2018-07-06T17:52:53.790Z,52.30
2018-07-06T17:55:22.165Z,52.50
2018-07-06T17:57:50.625Z,52.70
2018-07-06T18:00:19.042Z,53.10
2018-07-06T18:02:47.436Z,53.30
2018-07-06T18:05:15.769Z,53.50
2018-07-06T18:07:44.437Z,53.70
2018-07-06T18:10:12.870Z,54.00
2018-07-06T18:12:41.302Z,54.40
2018-07-06T18:15:09.686Z,54.50
2018-07-06T18:17:38.067Z,54.90
2018-07-06T18:20:06.585Z,55.20
2018-07-06T18:22:35.355Z,55.60
2018-07-06T18:25:03.769Z,55.70
2018-07-06T18:27:32.093Z,56.10
2018-07-06T18:30:00.475Z,57.20
2018-07-06T18:32:29.302Z,56.70
2018-07-06T18:37:25.824Z,57.20
2018-07-06T18:39:54.197Z,57.50
2018-07-06T18:42:22.789Z,57.40
2018-07-06T18:44:51.233Z,57.80
2018-07-06T18:47:19.677Z,58.40
2018-07-06T18:49:48.017Z,58.50
2018-07-06T18:52:16.545Z,58.70
2018-07-06T18:54:44.841Z,58.80
2018-07-06T18:57:13.217Z,59.00
2018-07-06T18:59:41.594Z,59.30
2018-07-06T19:02:09.987Z,59.70
2018-07-06T19:04:38.428Z,59.80
2018-07-06T19:07:06.853Z,59.80
2018-07-06T19:09:35.239Z,60.20
2018-07-06T19:12:03.594Z,60.50
2018-07-06T19:14:32.122Z,61.00
2018-07-06T19:17:00.473Z,61.00
2018-07-06T19:19:28.907Z,61.20
2018-07-06T19:21:57.262Z,61.40
2018-07-06T19:24:25.638Z,61.40
2018-07-06T19:26:54.145Z,61.80
2018-07-06T19:29:22.578Z,62.00
2018-07-06T19:31:50.953Z,62.80
2018-07-06T19:34:19.541Z,62.60
2018-07-06T19:36:47.947Z,62.50
2018-07-06T19:39:16.454Z,63.00
2018-07-06T19:41:44.870Z,63.10
2018-07-06T19:44:13.401Z,63.40
2018-07-06T19:46:42.065Z,63.40
2018-07-06T19:49:10.522Z,63.80
2018-07-06T19:51:38.930Z,64.00
2018-07-06T19:56:58.090Z,64.50
2018-07-06T19:59:26.485Z,64.40
2018-07-06T20:01:54.852Z,64.60
2018-07-06T20:04:23.349Z,64.80
2018-07-06T20:06:51.776Z,65.30
2018-07-06T20:09:20.105Z,65.40
2018-07-06T20:11:48.437Z,66.30
2018-07-06T20:14:17.001Z,65.70
2018-07-06T20:16:45.356Z,66.00
2018-07-06T20:19:13.845Z,66.10
2018-07-06T20:21:42.392Z,66.20
2018-07-06T20:24:10.789Z,66.40
2018-07-06T20:26:39.161Z,66.70
2018-07-06T20:29:07.653Z,66.80
2018-07-06T20:31:36.007Z,67.10
2018-07-06T20:34:04.472Z,67.30
2018-07-06T20:36:32.874Z,67.50
2018-07-06T20:39:01.382Z,67.70
2018-07-06T20:41:29.761Z,67.90
2018-07-06T20:43:58.145Z,68.10
2018-07-06T20:46:26.513Z,68.30
2018-07-06T20:48:54.949Z,68.50
2018-07-06T20:51:23.341Z,68.90
2018-07-06T20:53:51.821Z,68.80
2018-07-06T20:56:20.114Z,69.20
2018-07-06T20:58:48.490Z,69.30
2018-07-06T21:01:16.885Z,69.40
2018-07-06T21:03:45.266Z,69.60
2018-07-06T21:06:13.633Z,69.80
2018-07-06T21:08:41.977Z,70.10
2018-07-06T21:11:10.381Z,70.30
2018-07-06T21:13:38.773Z,70.30
2018-07-06T21:16:07.126Z,70.70
2018-07-06T21:18:35.465Z,70.60
2018-07-06T21:21:03.824Z,70.70
2018-07-06T21:23:32.247Z,70.90
2018-07-06T21:26:00.586Z,71.10
2018-07-06T21:28:28.884Z,71.20
2018-07-06T21:30:57.247Z,71.30
2018-07-06T21:33:25.564Z,71.30
2018-07-06T21:35:53.900Z,71.60
2018-07-06T21:38:22.225Z,71.60
2018-07-06T21:40:50.589Z,71.80
2018-07-06T21:43:18.928Z,71.90
2018-07-06T21:45:47.328Z,72.00
2018-07-06T21:48:15.713Z,72.30
2018-07-06T21:50:44.071Z,72.60
2018-07-06T21:53:12.489Z,72.60
2018-07-06T21:55:40.820Z,72.90
2018-07-06T22:00:41.245Z,73.30
2018-07-06T22:03:11.431Z,73.30
2018-07-06T22:05:40.669Z,73.30
2018-07-06T22:08:09.197Z,73.40
2018-07-06T22:10:38.101Z,73.60
2018-07-06T22:13:07.177Z,73.70
2018-07-06T22:15:43.881Z,74.00
2018-07-06T22:18:13.772Z,74.00
2018-07-06T22:20:43.096Z,74.10
2018-07-06T22:23:11.447Z,74.10
2018-07-06T22:25:39.825Z,74.10
2018-07-06T22:28:08.213Z,74.30
2018-07-06T22:30:36.583Z,74.50
2018-07-06T22:33:05.085Z,74.60
2018-07-06T22:35:33.574Z,74.70
2018-07-06T22:38:02.099Z,74.90
2018-07-06T22:40:30.505Z,75.20
2018-07-06T22:42:58.842Z,75.30
2018-07-06T22:45:27.189Z,75.60
2018-07-06T22:47:55.565Z,75.70
2018-07-06T22:50:23.901Z,76.00
2018-07-06T22:52:52.260Z,76.20
2018-07-06T22:55:20.635Z,76.60
2018-07-06T22:57:48.973Z,76.70
2018-07-06T23:00:17.377Z,77.00
2018-07-06T23:02:45.733Z,77.00
2018-07-06T23:05:15.345Z,77.50
2018-07-06T23:07:43.821Z,77.40
2018-07-06T23:10:12.485Z,77.60
2018-07-06T23:12:41.120Z,77.70
2018-07-06T23:15:09.505Z,78.00
2018-07-06T23:17:37.858Z,78.50
2018-07-06T23:20:06.750Z,78.20
2018-07-06T23:23:08.697Z,78.30
2018-07-06T23:25:39.112Z,78.40
2018-07-06T23:28:07.514Z,78.40
2018-07-06T23:30:35.889Z,78.80
2018-07-06T23:33:05.176Z,78.90
2018-07-06T23:35:33.778Z,79.30
2018-07-06T23:38:02.161Z,79.40
2018-07-06T23:40:30.572Z,79.50
2018-07-06T23:42:58.996Z,79.70
2018-07-06T23:45:27.506Z,79.80
2018-07-06T23:47:55.861Z,79.70
2018-07-06T23:50:24.445Z,79.90
2018-07-06T23:52:53.181Z,80.00
2018-07-06T23:55:21.555Z,80.10
